Sutter Island, California
Current Conditions -  °F | °C
As of 4:53 PM on Monday 24 Nov 2014 (Local Time) from KSAC Reporting Station
Clear Clear  
Wind Chill: 56°   Ceiling: Unl
Heat Index: 56°   Visibility: 10mi
Dew Point: 40°   Wind: 0mph
Humidity: 55%   Direction: NA
Pressure: 30.34"   Gusts: NA
Location:  38.3168°N, 121.532°W
Report Text: KSAC 250053Z AUTO 00000KT 10SM CLR 13/04 A3034 RMK AO2 SLP273 T01330044 TSNO
Loading
Personal Weather Stations






























Interactive Weather Map New forecast layout! Learn more

10-Day Weather Forecast

Advertisements
Track Severe Weather on mobile